createdAt,value
2018-07-30T00:00:50.565Z,36.80
2018-07-30T00:03:18.966Z,37.30
2018-07-30T00:05:47.250Z,37.40
2018-07-30T00:08:15.474Z,37.30
2018-07-30T00:10:43.654Z,37.20
2018-07-30T00:13:11.934Z,37.30
2018-07-30T00:15:40.844Z,37.50
2018-07-30T00:18:09.451Z,37.90
2018-07-30T00:20:37.711Z,38.10
2018-07-30T00:23:05.925Z,38.50
2018-07-30T00:25:34.241Z,38.60
2018-07-30T00:28:02.458Z,38.50
2018-07-30T00:30:30.671Z,37.90
2018-07-30T00:32:58.994Z,37.70
2018-07-30T00:35:27.205Z,37.70
2018-07-30T00:37:55.770Z,37.40
2018-07-30T00:40:24.118Z,37.60
2018-07-30T00:42:52.382Z,37.70
2018-07-30T00:45:20.610Z,37.90
2018-07-30T00:47:49.399Z,38.00
2018-07-30T00:50:17.837Z,38.00
2018-07-30T00:52:46.095Z,37.90
2018-07-30T00:55:14.445Z,38.30
2018-07-30T00:57:42.708Z,38.60
2018-07-30T01:00:10.947Z,38.30
2018-07-30T01:02:39.938Z,38.00
2018-07-30T01:05:08.178Z,38.20
2018-07-30T01:07:36.483Z,38.40
2018-07-30T01:10:05.083Z,38.40
2018-07-30T01:12:33.853Z,37.90
2018-07-30T01:15:02.111Z,38.40
2018-07-30T01:17:30.404Z,38.60
2018-07-30T01:19:58.674Z,38.40
2018-07-30T01:22:26.866Z,38.30
2018-07-30T01:24:55.338Z,38.30
2018-07-30T01:27:23.581Z,38.40
2018-07-30T01:29:51.861Z,38.40
2018-07-30T01:32:20.077Z,38.90
2018-07-30T01:34:48.529Z,38.50
2018-07-30T01:37:16.756Z,38.60
2018-07-30T01:39:44.946Z,38.50
2018-07-30T01:42:13.126Z,39.40
2018-07-30T01:44:41.413Z,38.90
2018-07-30T01:47:09.904Z,39.00
2018-07-30T01:49:38.099Z,39.00
2018-07-30T01:52:06.922Z,39.20
2018-07-30T01:54:35.121Z,39.20
2018-07-30T01:57:03.382Z,38.40
2018-07-30T01:59:31.611Z,38.00
2018-07-30T02:01:59.804Z,38.10
2018-07-30T02:04:28.005Z,38.40
2018-07-30T02:06:56.752Z,38.80
2018-07-30T02:09:25.079Z,38.90
2018-07-30T02:11:53.286Z,38.60
2018-07-30T02:14:21.514Z,38.70
2018-07-30T02:16:49.754Z,38.80
2018-07-30T02:19:18.273Z,39.30
2018-07-30T02:21:46.845Z,39.70
2018-07-30T02:24:15.097Z,39.80
2018-07-30T02:26:43.305Z,40.00
2018-07-30T02:29:11.560Z,40.10
2018-07-30T02:31:40.950Z,40.10
2018-07-30T02:34:09.737Z,40.40
2018-07-30T02:36:37.950Z,40.80
2018-07-30T02:39:08.935Z,40.10
2018-07-30T02:41:37.121Z,40.20
2018-07-30T02:44:05.348Z,40.30
2018-07-30T02:46:33.703Z,40.50
2018-07-30T02:49:02.906Z,40.30
2018-07-30T02:51:31.165Z,39.90
2018-07-30T02:53:59.413Z,39.90
2018-07-30T02:56:27.633Z,39.80
2018-07-30T02:58:55.869Z,39.90
2018-07-30T03:01:24.150Z,40.00
2018-07-30T03:03:52.402Z,40.00
2018-07-30T03:06:20.599Z,39.80
2018-07-30T03:08:48.853Z,39.80
2018-07-30T03:11:17.158Z,40.60
2018-07-30T03:13:45.660Z,40.80
2018-07-30T03:16:14.024Z,40.70
2018-07-30T03:18:42.694Z,40.60
2018-07-30T03:21:11.035Z,41.10
2018-07-30T03:23:39.217Z,41.50
2018-07-30T03:26:07.413Z,41.70
2018-07-30T03:28:35.708Z,41.50
2018-07-30T03:31:04.149Z,41.70
2018-07-30T03:33:32.692Z,41.90
2018-07-30T03:36:00.965Z,41.80
2018-07-30T03:38:29.137Z,41.60
2018-07-30T03:40:57.485Z,42.00
2018-07-30T03:43:25.752Z,41.20
2018-07-30T03:45:53.965Z,41.30
2018-07-30T03:48:22.188Z,41.40
2018-07-30T03:50:50.405Z,41.50
2018-07-30T03:53:19.194Z,41.60
2018-07-30T03:55:47.482Z,41.80
2018-07-30T03:58:15.681Z,41.90
2018-07-30T04:00:43.876Z,41.80
2018-07-30T04:03:12.105Z,41.90
2018-07-30T04:05:40.518Z,41.80
2018-07-30T04:08:08.684Z,41.70
2018-07-30T04:10:36.967Z,41.80
2018-07-30T04:13:05.181Z,41.90
2018-07-30T04:15:33.444Z,42.00
2018-07-30T04:18:02.559Z,41.90
2018-07-30T04:20:30.744Z,42.10
2018-07-30T04:22:58.955Z,42.30
2018-07-30T04:25:27.189Z,42.10
2018-07-30T04:27:55.455Z,42.30
2018-07-30T04:30:23.741Z,43.40
2018-07-30T04:32:52.007Z,42.50
2018-07-30T04:35:20.179Z,42.20
2018-07-30T04:37:49.080Z,42.00
2018-07-30T04:40:17.914Z,41.70
2018-07-30T04:42:46.123Z,41.90
2018-07-30T04:45:15.943Z,41.50
2018-07-30T04:47:44.166Z,41.60
2018-07-30T04:50:12.459Z,42.00
2018-07-30T04:52:42.039Z,41.70
2018-07-30T04:55:10.250Z,41.30
2018-07-30T04:57:38.461Z,41.30
2018-07-30T05:00:07.314Z,40.80
2018-07-30T05:02:35.524Z,40.50
2018-07-30T05:05:04.245Z,40.40
2018-07-30T05:07:32.485Z,40.60
2018-07-30T05:10:00.721Z,40.60
2018-07-30T05:12:28.937Z,40.90
2018-07-30T05:14:57.163Z,41.00
2018-07-30T05:17:25.878Z,41.60
2018-07-30T05:19:54.158Z,41.00
2018-07-30T05:24:50.378Z,41.00
2018-07-30T05:27:18.721Z,41.00
2018-07-30T05:29:46.916Z,40.90
2018-07-30T05:32:15.201Z,41.80
2018-07-30T05:34:43.391Z,41.00
2018-07-30T05:37:11.704Z,40.80
2018-07-30T05:39:40.690Z,40.80
2018-07-30T05:42:08.875Z,40.80
2018-07-30T05:44:37.093Z,40.70
2018-07-30T05:47:05.444Z,41.00
2018-07-30T05:49:33.991Z,41.20
2018-07-30T05:52:03.225Z,41.20
2018-07-30T05:54:31.427Z,40.90
2018-07-30T05:56:59.613Z,40.90
2018-07-30T05:59:27.911Z,40.90
2018-07-30T06:01:56.213Z,40.80
2018-07-30T06:04:24.581Z,40.80
2018-07-30T06:06:52.789Z,40.50
2018-07-30T06:09:20.987Z,40.30
2018-07-30T06:11:49.230Z,40.20
2018-07-30T06:14:17.606Z,40.20
2018-07-30T06:16:45.811Z,40.20
2018-07-30T06:19:14.017Z,40.20
2018-07-30T06:21:42.224Z,40.30
2018-07-30T06:24:10.528Z,39.90
2018-07-30T06:26:38.705Z,39.70
2018-07-30T06:29:07.079Z,39.70
2018-07-30T06:31:35.263Z,39.50
2018-07-30T06:34:03.651Z,39.80
2018-07-30T06:36:31.881Z,39.80
2018-07-30T06:39:00.075Z,39.90
2018-07-30T06:41:28.278Z,39.90
2018-07-30T06:43:56.609Z,39.80
2018-07-30T06:46:25.065Z,39.60
2018-07-30T06:48:53.533Z,39.60
2018-07-30T06:51:21.728Z,38.80
2018-07-30T06:53:49.939Z,38.60
2018-07-30T06:56:18.411Z,38.30
2018-07-30T06:58:46.624Z,37.00
2018-07-30T07:01:14.893Z,37.40
2018-07-30T07:03:43.089Z,37.00
2018-07-30T07:06:11.325Z,36.10
2018-07-30T07:08:40.186Z,36.20
2018-07-30T07:11:08.406Z,36.00
2018-07-30T07:13:36.602Z,35.90
2018-07-30T07:16:04.872Z,36.00
2018-07-30T07:18:33.289Z,34.90
2018-07-30T07:21:01.513Z,34.60
2018-07-30T07:23:29.685Z,32.50
2018-07-30T07:25:57.909Z,32.50
2018-07-30T07:28:26.133Z,32.10
2018-07-30T07:30:54.409Z,30.70
2018-07-30T07:33:22.625Z,29.80
2018-07-30T07:35:50.811Z,28.20
2018-07-30T07:38:19.339Z,28.90
2018-07-30T07:40:47.665Z,28.50
2018-07-30T07:43:15.878Z,28.00
2018-07-30T07:45:44.125Z,26.80
2018-07-30T07:48:12.337Z,25.50
2018-07-30T07:50:41.306Z,23.60
2018-07-30T07:53:09.403Z,23.40
2018-07-30T07:55:37.688Z,22.50
2018-07-30T07:58:05.964Z,22.10
2018-07-30T08:00:34.250Z,21.70
2018-07-30T08:03:02.457Z,20.70
2018-07-30T08:05:30.631Z,20.40
2018-07-30T08:07:58.817Z,19.80
2018-07-30T08:12:55.105Z,18.10
2018-07-30T08:15:23.313Z,18.20
2018-07-30T08:17:51.501Z,17.30
2018-07-30T08:20:19.753Z,17.40
2018-07-30T08:22:48.230Z,17.40
2018-07-30T08:25:16.430Z,16.30
2018-07-30T08:27:44.614Z,16.60
2018-07-30T08:30:12.826Z,16.10
2018-07-30T08:32:41.119Z,16.40
2018-07-30T08:35:10.127Z,16.00
2018-07-30T08:37:38.281Z,16.10
2018-07-30T08:40:07.526Z,15.90
2018-07-30T08:42:35.702Z,16.00
2018-07-30T08:45:05.335Z,15.70
2018-07-30T08:47:33.619Z,15.90
2018-07-30T08:50:02.979Z,15.70
2018-07-30T08:52:31.176Z,15.50
2018-07-30T08:54:59.350Z,15.30
2018-07-30T08:57:27.569Z,15.00
2018-07-30T08:59:55.974Z,15.00
2018-07-30T09:02:24.395Z,14.80
2018-07-30T09:07:20.558Z,14.50
2018-07-30T09:09:48.774Z,14.40
2018-07-30T09:12:17.045Z,14.00
2018-07-30T09:14:45.218Z,14.30
2018-07-30T09:17:13.413Z,13.60
2018-07-30T09:19:41.730Z,13.50
2018-07-30T09:22:09.955Z,13.50
2018-07-30T09:24:38.128Z,13.30
2018-07-30T09:27:06.331Z,13.30
2018-07-30T09:29:35.358Z,12.90
2018-07-30T09:32:04.917Z,13.20
2018-07-30T09:34:33.144Z,13.50
2018-07-30T09:37:01.474Z,13.20
2018-07-30T09:39:29.700Z,13.00
2018-07-30T09:41:57.858Z,12.80
2018-07-30T09:44:26.277Z,12.80
2018-07-30T09:46:54.481Z,13.10
2018-07-30T09:49:22.686Z,12.90
2018-07-30T09:51:50.877Z,13.00
2018-07-30T09:54:19.217Z,12.70
2018-07-30T09:56:47.463Z,12.90
2018-07-30T09:59:15.833Z,13.20
2018-07-30T10:01:44.030Z,13.50
2018-07-30T10:06:40.227Z,13.20
2018-07-30T10:09:09.957Z,12.60
2018-07-30T10:14:06.517Z,12.10
2018-07-30T10:16:34.729Z,11.90
2018-07-30T10:19:04.696Z,12.00
2018-07-30T10:21:32.931Z,12.10
2018-07-30T10:24:01.094Z,12.20
2018-07-30T10:26:29.261Z,12.00
2018-07-30T10:28:57.464Z,11.70
2018-07-30T10:31:25.749Z,11.80
2018-07-30T10:33:53.950Z,11.70
2018-07-30T10:36:22.153Z,11.80
2018-07-30T10:38:50.323Z,11.30
2018-07-30T10:41:19.534Z,11.00
2018-07-30T10:43:48.090Z,11.20
2018-07-30T10:46:16.308Z,11.70
2018-07-30T10:48:44.480Z,12.20
2018-07-30T10:51:12.701Z,13.20
2018-07-30T10:53:41.044Z,13.20
2018-07-30T10:56:09.214Z,14.00
2018-07-30T10:58:37.409Z,14.60
2018-07-30T11:01:05.741Z,14.00
2018-07-30T11:03:33.874Z,13.10
2018-07-30T11:06:02.090Z,12.50
2018-07-30T11:08:30.250Z,11.50
2018-07-30T11:13:30.565Z,11.80
2018-07-30T11:15:58.758Z,12.20
2018-07-30T11:18:27.146Z,12.80
2018-07-30T11:20:55.345Z,13.80
2018-07-30T11:23:23.529Z,13.80
2018-07-30T11:25:51.855Z,13.50
2018-07-30T11:28:20.160Z,12.70
2018-07-30T11:30:48.970Z,12.40
2018-07-30T11:33:17.220Z,11.50
2018-07-30T11:35:45.462Z,11.40
2018-07-30T11:38:13.686Z,11.30
2018-07-30T11:40:42.032Z,10.70
2018-07-30T11:43:10.509Z,10.80
2018-07-30T11:45:38.713Z,10.90
2018-07-30T11:48:07.033Z,10.80
2018-07-30T11:50:35.213Z,10.90
2018-07-30T11:53:03.461Z,10.80
2018-07-30T11:55:31.775Z,10.80
2018-07-30T11:57:59.991Z,10.60
2018-07-30T12:00:28.221Z,10.90
2018-07-30T12:02:56.475Z,10.90
2018-07-30T12:05:25.500Z,11.20
2018-07-30T12:07:53.883Z,11.40
2018-07-30T12:10:22.117Z,11.70
2018-07-30T12:12:50.421Z,12.60
2018-07-30T12:15:19.317Z,13.40
2018-07-30T12:17:47.713Z,13.50
2018-07-30T12:20:15.908Z,13.40
2018-07-30T12:22:44.128Z,12.40
2018-07-30T12:25:12.416Z,12.40
2018-07-30T12:27:40.834Z,12.10
2018-07-30T12:30:09.094Z,12.30
2018-07-30T12:32:37.333Z,11.10
2018-07-30T12:35:05.523Z,11.00
2018-07-30T12:37:34.245Z,10.20
2018-07-30T12:40:02.568Z,10.20
2018-07-30T12:42:30.896Z,10.00
2018-07-30T12:44:59.132Z,10.10
2018-07-30T12:47:27.350Z,10.40
2018-07-30T12:49:55.553Z,10.40
2018-07-30T12:52:23.750Z,10.80
2018-07-30T12:54:52.166Z,11.60
2018-07-30T12:57:20.349Z,11.70
2018-07-30T12:59:49.406Z,12.00
2018-07-30T13:02:17.645Z,12.50
2018-07-30T13:04:47.898Z,13.80
2018-07-30T13:07:16.054Z,13.80
2018-07-30T13:12:13.217Z,14.60
2018-07-30T13:14:42.105Z,15.10
2018-07-30T13:17:11.605Z,15.20
2018-07-30T13:19:39.818Z,15.50
2018-07-30T13:22:08.014Z,15.80
2018-07-30T13:24:36.276Z,15.20
2018-07-30T13:27:05.553Z,14.90
2018-07-30T13:29:34.073Z,14.90
2018-07-30T13:32:02.366Z,15.20
2018-07-30T13:34:30.765Z,15.50
2018-07-30T13:36:58.945Z,15.50
2018-07-30T13:39:27.279Z,15.80
2018-07-30T13:41:55.584Z,15.50
2018-07-30T13:44:23.861Z,15.90
2018-07-30T13:46:52.032Z,15.10
2018-07-30T13:49:20.342Z,14.80
2018-07-30T13:51:49.486Z,14.90
2018-07-30T13:54:18.032Z,14.70
2018-07-30T13:56:46.233Z,13.70
2018-07-30T13:59:14.424Z,13.70
2018-07-30T14:01:42.650Z,13.40
2018-07-30T14:04:11.495Z,13.70
2018-07-30T14:06:39.741Z,14.40
2018-07-30T14:09:10.402Z,14.70
2018-07-30T14:11:38.658Z,14.60
2018-07-30T14:14:07.299Z,14.70
2018-07-30T14:16:35.540Z,14.30
2018-07-30T14:19:04.219Z,13.90
2018-07-30T14:21:32.605Z,13.80
2018-07-30T14:24:00.844Z,12.90
2018-07-30T14:26:29.109Z,12.60
2018-07-30T14:28:57.453Z,12.40
2018-07-30T14:31:25.655Z,12.40
2018-07-30T14:33:53.877Z,12.20
2018-07-30T14:36:22.129Z,12.20
2018-07-30T14:38:50.329Z,12.50
2018-07-30T14:41:19.180Z,12.00
2018-07-30T14:43:47.594Z,12.20
2018-07-30T14:46:15.809Z,11.60
2018-07-30T14:48:44.183Z,11.80
2018-07-30T14:51:12.717Z,12.50
2018-07-30T14:53:40.952Z,12.90
2018-07-30T14:56:09.221Z,13.50
2018-07-30T14:58:37.453Z,14.00
2018-07-30T15:01:06.321Z,14.40
2018-07-30T15:03:34.754Z,14.60
2018-07-30T15:06:03.086Z,14.30
2018-07-30T15:08:31.685Z,13.90
2018-07-30T15:10:59.902Z,14.20
2018-07-30T15:13:28.153Z,13.60
2018-07-30T15:15:57.629Z,13.30
2018-07-30T15:18:25.901Z,13.70
2018-07-30T15:20:54.112Z,14.10
2018-07-30T15:23:22.335Z,14.80
2018-07-30T15:25:50.605Z,15.10
2018-07-30T15:28:19.116Z,16.00
2018-07-30T15:30:47.398Z,16.40
2018-07-30T15:33:15.640Z,17.10
2018-07-30T15:35:43.896Z,17.60
2018-07-30T15:38:12.157Z,17.70
2018-07-30T15:40:40.523Z,17.40
2018-07-30T15:43:09.339Z,17.30
2018-07-30T15:45:37.529Z,17.70
2018-07-30T15:48:05.743Z,18.10
2018-07-30T15:50:34.035Z,18.40
2018-07-30T15:53:02.365Z,17.60
2018-07-30T15:55:31.409Z,16.90
2018-07-30T15:57:59.750Z,16.20
2018-07-30T16:00:28.086Z,15.90
2018-07-30T16:02:56.868Z,15.80
2018-07-30T16:05:25.237Z,15.70
2018-07-30T16:07:53.684Z,15.80
2018-07-30T16:10:21.921Z,16.50
2018-07-30T16:12:50.165Z,16.90
2018-07-30T16:15:18.650Z,17.70
2018-07-30T16:17:46.935Z,17.70
2018-07-30T16:20:15.257Z,18.30
2018-07-30T16:22:43.540Z,17.70
2018-07-30T16:27:40.195Z,18.30
2018-07-30T16:30:09.214Z,17.60
2018-07-30T16:32:37.474Z,17.50
2018-07-30T16:35:06.566Z,16.90
2018-07-30T16:37:34.916Z,16.70
2018-07-30T16:40:03.288Z,16.80
2018-07-30T16:42:31.644Z,17.00
2018-07-30T16:44:59.920Z,17.70
2018-07-30T16:47:28.682Z,18.60
2018-07-30T16:49:57.383Z,18.40
2018-07-30T16:52:25.725Z,19.00
2018-07-30T16:54:54.532Z,18.70
2018-07-30T16:57:22.833Z,19.60
2018-07-30T16:59:51.140Z,19.60
2018-07-30T17:02:21.126Z,20.00
2018-07-30T17:04:49.446Z,19.80
2018-07-30T17:07:17.706Z,20.20
2018-07-30T17:09:45.948Z,20.40
2018-07-30T17:12:14.182Z,20.70
2018-07-30T17:14:42.538Z,20.60
2018-07-30T17:17:10.758Z,20.50
2018-07-30T17:19:38.982Z,20.10
2018-07-30T17:22:07.162Z,20.50
2018-07-30T17:24:35.486Z,20.40
2018-07-30T17:29:31.683Z,20.80
2018-07-30T17:31:59.885Z,20.80
2018-07-30T17:34:28.269Z,20.90
2018-07-30T17:36:56.607Z,21.20
2018-07-30T17:39:24.933Z,21.40
2018-07-30T17:41:53.129Z,21.50
2018-07-30T17:44:21.368Z,21.90
2018-07-30T17:46:49.710Z,21.70
2018-07-30T17:49:17.909Z,22.00
2018-07-30T17:51:46.130Z,22.20
2018-07-30T17:54:14.333Z,22.60
2018-07-30T17:56:42.581Z,22.80
2018-07-30T17:59:10.822Z,22.70
2018-07-30T18:01:39.068Z,22.80
2018-07-30T18:04:07.469Z,22.90
2018-07-30T18:06:35.717Z,23.20
2018-07-30T18:09:05.214Z,23.20
2018-07-30T18:11:33.538Z,23.30
2018-07-30T18:14:01.732Z,23.70
2018-07-30T18:18:58.303Z,22.70
2018-07-30T18:21:26.695Z,23.90
2018-07-30T18:23:55.019Z,24.00
2018-07-30T18:26:23.297Z,23.90
2018-07-30T18:28:51.510Z,23.80
2018-07-30T18:31:19.848Z,23.70
2018-07-30T18:33:48.175Z,24.10
2018-07-30T18:36:16.374Z,24.30
2018-07-30T18:38:44.577Z,24.10
2018-07-30T18:41:13.174Z,24.10
2018-07-30T18:43:41.629Z,24.20
2018-07-30T18:46:09.908Z,23.90
2018-07-30T18:48:38.192Z,23.90
2018-07-30T18:51:06.822Z,24.00
2018-07-30T18:53:35.213Z,24.20
2018-07-30T18:56:03.413Z,24.20
2018-07-30T18:58:31.617Z,24.20
2018-07-30T19:00:59.822Z,24.20
2018-07-30T19:03:28.064Z,24.50
2018-07-30T19:05:56.417Z,24.80
2018-07-30T19:08:24.754Z,24.80
2018-07-30T19:10:53.078Z,25.00
2018-07-30T19:13:21.269Z,25.20
2018-07-30T19:15:49.606Z,25.60
2018-07-30T19:18:17.949Z,25.20
2018-07-30T19:20:46.172Z,24.90
2018-07-30T19:23:14.361Z,24.80
2018-07-30T19:25:42.739Z,24.80
2018-07-30T19:28:11.017Z,25.50
2018-07-30T19:33:07.366Z,25.00
2018-07-30T19:35:35.630Z,24.90
2018-07-30T19:38:04.071Z,25.00
2018-07-30T19:40:32.418Z,25.20
2018-07-30T19:43:00.701Z,24.90
2018-07-30T19:45:28.945Z,25.70
2018-07-30T19:47:57.185Z,25.50
2018-07-30T19:50:25.573Z,25.20
2018-07-30T19:52:53.858Z,25.80
2018-07-30T19:55:22.106Z,25.60
2018-07-30T19:57:50.393Z,25.80
2018-07-30T20:00:18.481Z,25.90
2018-07-30T20:02:46.696Z,25.20
2018-07-30T20:05:14.902Z,25.60
2018-07-30T20:07:43.171Z,25.70
2018-07-30T20:10:11.396Z,25.40
2018-07-30T20:15:08.077Z,26.10
2018-07-30T20:17:36.341Z,26.40
2018-07-30T20:20:06.129Z,25.50
2018-07-30T20:22:34.369Z,26.10
2018-07-30T20:25:02.617Z,26.10
2018-07-30T20:27:30.838Z,25.50
2018-07-30T20:29:59.091Z,26.30
2018-07-30T20:32:27.348Z,26.10
2018-07-30T20:34:55.798Z,26.10
2018-07-30T20:42:20.160Z,25.40
2018-07-30T20:44:48.390Z,25.80
2018-07-30T20:47:16.610Z,26.10
2018-07-30T20:49:44.821Z,26.10
2018-07-30T20:52:13.009Z,25.90
2018-07-30T20:54:41.252Z,25.50
2018-07-30T20:57:09.462Z,25.40
2018-07-30T20:59:37.653Z,25.30
2018-07-30T21:02:06.305Z,25.20
2018-07-30T21:04:34.621Z,25.00
2018-07-30T21:07:02.962Z,24.80
2018-07-30T21:09:31.145Z,25.00
2018-07-30T21:11:59.328Z,24.80
2018-07-30T21:14:27.650Z,24.90
2018-07-30T21:16:55.860Z,25.10
2018-07-30T21:19:24.048Z,25.00
2018-07-30T21:21:52.646Z,25.50
2018-07-30T21:24:20.824Z,25.70
2018-07-30T21:26:49.090Z,25.30
2018-07-30T21:29:17.266Z,25.40
2018-07-30T21:31:45.649Z,25.20
2018-07-30T21:34:13.912Z,26.60
2018-07-30T21:36:42.177Z,26.80
2018-07-30T21:39:12.469Z,26.70
2018-07-30T21:41:41.197Z,26.70
2018-07-30T21:44:10.446Z,26.60
2018-07-30T21:46:39.640Z,26.80
2018-07-30T21:49:07.869Z,26.80
2018-07-30T21:51:36.119Z,27.00
2018-07-30T21:54:05.021Z,27.40
2018-07-30T21:56:34.372Z,27.70
2018-07-30T21:59:02.930Z,28.40
2018-07-30T22:01:31.179Z,28.00
2018-07-30T22:03:59.370Z,27.90
2018-07-30T22:06:27.723Z,27.80
2018-07-30T22:08:55.917Z,28.60
2018-07-30T22:11:24.125Z,28.70
2018-07-30T22:13:52.321Z,29.10
2018-07-30T22:16:20.525Z,28.90
2018-07-30T22:18:48.849Z,28.70
2018-07-30T22:21:17.045Z,29.20
2018-07-30T22:26:13.234Z,29.70
2018-07-30T22:28:41.989Z,28.80
2018-07-30T22:31:10.198Z,29.30
2018-07-30T22:33:38.403Z,29.50
2018-07-30T22:36:06.603Z,30.10
2018-07-30T22:38:35.874Z,29.70
2018-07-30T22:41:04.195Z,29.50
2018-07-30T22:43:32.403Z,29.50
2018-07-30T22:46:01.046Z,30.00
2018-07-30T22:48:29.248Z,29.80
2018-07-30T22:50:57.610Z,29.80
2018-07-30T22:53:25.825Z,29.80
2018-07-30T22:55:54.024Z,29.70
2018-07-30T22:58:22.274Z,29.90
2018-07-30T23:00:50.531Z,29.60
2018-07-30T23:03:18.748Z,29.80
2018-07-30T23:05:46.973Z,30.00
2018-07-30T23:08:15.193Z,30.00
2018-07-30T23:10:43.417Z,30.60
2018-07-30T23:13:12.338Z,30.80
2018-07-30T23:15:40.569Z,30.30
2018-07-30T23:18:09.189Z,30.00
2018-07-30T23:20:37.538Z,29.80
2018-07-30T23:23:05.790Z,30.20
2018-07-30T23:25:34.182Z,29.90
2018-07-30T23:30:30.345Z,30.70
2018-07-30T23:32:58.531Z,31.50
2018-07-30T23:35:27.682Z,31.30
2018-07-30T23:37:55.905Z,31.70
2018-07-30T23:40:24.410Z,31.80
2018-07-30T23:42:52.693Z,31.30
2018-07-30T23:45:20.908Z,31.50
2018-07-30T23:47:49.477Z,31.30
2018-07-30T23:50:17.751Z,31.50
2018-07-30T23:52:45.953Z,31.90
2018-07-30T23:55:14.166Z,31.80
2018-07-30T23:57:43.436Z,32.20
